Latest Weather Observations for Mudgee

IDN60801

Issued at 7:03 am EST Sunday 26 June 2016 (issued every 30 minutes, with the page automatically refreshed every 10 minutes)

About weather observations | Map of weather stations | Latest weather observations for NSW | Other Formats
Station Details ID: 062101 Name: MUDGEE AIRPORT AWS Lat: -32.56 Lon: 149.61 Height: 471.0 m
Data from the previous 72 hours. | See also: Recent months at Mudgee
Date/Time
EST
Temp
°C
App
Temp
°C
Dew
Point
°C
Rel
Hum
%
Delta-T
°C
Wind Press
QNH
hPa
Press
MSL
hPa
Rain since
9am
mm
Dir  Spd
km/h
Gust
km/h
Spd
kts
Gust
kts
26/07:00am -2.2 -4.9 -2.6 97 0.0 S 2 6 1 3 1020.8 1021.3 0.0
26/06:30am -1.7 -4.0 -2.0 98 0.0 CALM 0 0 0 0 1020.4 1020.9 0.0
26/06:00am -2.1 -4.4 -2.4 98 0.0 CALM 0 0 0 0 1020.2 1020.7 0.0
26/05:30am -2.4 -6.1 -2.8 97 0.0 NE 7 9 4 5 1020.4 1020.9 0.0
26/05:00am -2.4 -4.8 -2.8 97 0.0 CALM 0 0 0 0 1020.6 1021.1 0.0
26/04:30am -2.8 -6.3 -3.2 97 0.0 NNE 6 9 3 5 1020.5 1021.0 0.0
26/04:00am -1.8 -4.1 -2.2 97 0.1 CALM 0 0 0 0 1020.4 1020.9 0.0
26/03:30am -2.8 -5.2 -3.2 97 0.0 CALM 0 0 0 0 1020.6 1021.1 0.0
26/03:00am -2.3 -5.8 -2.7 97 0.0 NNE 6 7 3 4 1020.5 1021.0 0.0
26/02:30am -1.5 -4.9 -1.9 97 0.1 NE 6 9 3 5 1020.2 1020.7 0.0
26/02:00am -2.5 -6.6 -2.9 97 0.0 NNE 9 11 5 6 1020.3 1020.8 0.0
26/01:30am -1.8 -4.5 -2.2 97 0.1 SE 2 6 1 3 1020.1 1020.6 0.0
26/01:00am -2.1 -5.2 -2.5 97 0.0 ENE 4 11 2 6 1020.8 1021.3 0.0
26/12:30am -1.6 -5.6 -2.0 97 0.1 NE 9 11 5 6 1021.2 1021.7 0.0
26/12:00am -1.6 -5.9 -2.0 97 0.1 NE 11 11 6 6 1021.8 1022.3 0.0
 
Date/Time
EST
Temp
°C
App
Temp
°C
Dew
Point
°C
Rel
Hum
%
Delta-T
°C
Wind Press
QNH
hPa
Press
MSL
hPa
Rain since
9am
mm
Dir  Spd
km/h
Gust
km/h
Spd
kts
Gust
kts
25/11:30pm -1.4 -5.0 -1.8 97 0.1 NE 7 13 4 7 1022.1 1022.6 0.0
25/11:00pm -0.7 -4.0 -1.1 97 0.1 N 6 9 3 5 1022.2 1022.7 0.0
25/10:30pm -0.7 -3.6 -1.3 96 0.2 NNE 4 11 2 6 1021.9 1022.4 0.0
25/10:00pm 0.1 -3.7 -1.0 92 0.4 NE 9 11 5 6 1021.8 1022.3 0.0
25/09:30pm 0.4 -3.5 -1.2 89 0.6 WNW 9 11 5 6 1021.4 1021.9 0.0
25/09:00pm 1.5 -0.5 0.0 90 0.6 CALM 0 0 0 0 1021.4 1021.9 0.0
25/08:30pm 1.2 -2.9 -0.4 89 0.6 NNE 11 13 6 7 1021.7 1022.2 0.0
25/08:00pm 2.2 -0.5 0.3 87 0.7 SSW 4 9 2 5 1021.4 1021.9 0.0
25/07:30pm 3.1 0.8 0.5 83 1.0 SSW 2 7 1 4 1021.3 1021.8 0.0
25/07:00pm 3.1 -0.5 0.3 82 1.1 W 9 19 5 10 1021.1 1021.6 0.0
25/06:30pm 4.0 1.0 1.0 81 1.2 SSW 6 11 3 6 1020.8 1021.3 0.0
25/06:00pm 4.5 0.2 0.8 77 1.5 WSW 13 17 7 9 1020.4 1020.9 0.0
25/05:30pm 5.6 0.2 1.0 72 1.9 W 19 20 10 11 1020.1 1020.6 0.0
25/05:00pm 6.4 1.4 1.1 69 2.2 W 17 20 9 11 1020.1 1020.6 0.0
25/04:30pm 7.5 2.5 1.1 64 2.7 W 17 22 9 12 1019.9 1020.4 0.0
25/04:00pm 8.2 2.3 1.4 62 2.8 W 22 26 12 14 1019.8 1020.2 0.0
25/03:30pm 8.7 2.8 1.6 61 3.0 W 22 32 12 17 1019.7 1020.1 0.0
25/03:00pm 8.7 3.1 1.4 60 3.1 WNW 20 28 11 15 1019.5 1019.9 0.0
25/02:30pm 9.1 3.8 2.0 61 3.1 W 19 24 10 13 1019.5 1019.9 0.0
25/02:00pm 8.6 2.6 1.1 59 3.1 WSW 22 26 12 14 1019.6 1020.0 0.0
25/01:30pm 8.6 3.0 1.3 60 3.1 W 20 28 11 15 1019.8 1020.2 0.0
25/01:00pm 8.2 2.5 0.7 59 3.1 WSW 20 28 11 15 1020.1 1020.6 0.0
25/12:30pm 8.2 3.2 1.1 61 3.0 W 17 24 9 13 1020.3 1020.8 0.0
25/12:00pm 7.3 2.1 -0.2 59 3.0 W 17 24 9 13 1020.8 1021.3 0.0
25/11:30am 6.8 1.9 -0.2 61 2.8 W 15 26 8 14 1020.9 1021.4 0.0
25/11:00am 6.4 2.4 0.3 65 2.4 WSW 11 20 6 11 1021.2 1021.7 0.0
25/10:30am 5.6 0.8 0.0 67 2.2 WSW 15 24 8 13 1021.3 1021.8 0.0
25/10:00am 5.3 -0.3 0.1 69 2.0 SW 19 26 10 14 1021.4 1021.9 0.0
25/09:30am 4.7 -0.6 -0.7 68 2.1 SW 17 28 9 15 1021.4 1021.9 0.0
25/09:00am 4.6 0.6 0.2 73 1.7 SW 11 17 6 9 1021.1 1021.6 3.8
25/08:30am 4.2 0.6 0.7 78 1.4 SW 9 13 5 7 1020.9 1021.4 3.8
25/08:00am 3.0 -0.1 -0.1 80 1.2 W 6 9 3 5 1020.7 1021.2 3.8
25/07:30am 2.2 -1.5 0.1 86 0.8 WNW 9 13 5 7 1020.4 1020.9 3.8
25/07:00am 1.6 -1.7 -1.0 83 1.0 - 6 15 3 8 1020.0 1020.5 3.8
25/06:30am 1.9 -3.8 -0.7 83 1.0 W 19 24 10 13 1019.1 1019.6 3.8
25/06:00am 2.2 -2.8 -0.9 80 1.1 W 15 20 8 11 1019.2 1019.7 3.8
25/05:30am 2.7 -2.6 -0.6 79 1.2 W 17 22 9 12 1018.7 1019.2 3.8
25/05:00am 3.0 -2.9 -0.5 78 1.3 W 20 26 11 14 1018.2 1018.7 3.8
25/04:30am 3.8 -0.5 0.8 81 1.2 WSW 13 20 7 11 1018.0 1018.5 3.8
25/04:00am 3.8 -1.3 0.7 80 1.2 WSW 17 24 9 13 1017.9 1018.3 3.8
25/03:30am 3.4 -1.7 0.5 81 1.1 W 17 20 9 11 1017.6 1018.0 3.8
25/03:00am 3.7 -1.4 0.6 80 1.2 W 17 28 9 15 1017.5 1017.9 3.8
25/02:30am 3.9 -0.8 0.8 80 1.2 WSW 15 20 8 11 1017.7 1018.1 3.8
25/02:00am 4.1 0.7 1.8 85 0.9 WSW 9 15 5 8 1017.6 1018.0 3.8
25/01:42am 4.1 -1.8 1.8 85 0.9 WSW 22 28 12 15 1017.4 1017.8 3.8
25/01:30am 4.5 -0.9 1.2 79 1.3 W 19 32 10 17 1017.3 1017.7 3.8
25/01:00am 4.5 -1.1 -0.3 71 1.9 WSW 19 28 10 15 1017.0 1017.5 3.8
25/12:30am 4.8 -2.1 0.2 72 1.8 WSW 26 37 14 20 1016.8 1017.3 3.8
25/12:00am 4.8 -1.6 0.8 75 1.6 WSW 24 33 13 18 1016.5 1017.0 3.8
 
Date/Time
EST
Temp
°C
App
Temp
°C
Dew
Point
°C
Rel
Hum
%
Delta-T
°C
Wind Press
QNH
hPa
Press
MSL
hPa
Rain since
9am
mm
Dir  Spd
km/h
Gust
km/h
Spd
kts
Gust
kts
24/11:30pm 4.8 -0.8 1.5 79 1.3 WSW 20 30 11 16 1016.4 1016.9 3.8
24/11:00pm 4.8 -1.8 1.8 81 1.2 WSW 26 37 14 20 1016.4 1016.9 3.8
24/10:30pm 4.8 -2.6 1.7 80 1.3 WSW 30 41 16 22 1016.5 1017.0 3.8
24/10:00pm 4.6 -1.9 2.6 87 0.8 WSW 26 33 14 18 1016.5 1017.0 3.8
24/09:30pm 5.6 -1.1 1.5 75 1.7 W 26 37 14 20 1016.1 1016.5 3.8
24/09:00pm 5.8 -1.7 1.2 72 1.9 WSW 30 43 16 23 1015.8 1016.2 3.8
24/08:30pm 5.7 -2.8 0.7 70 2.0 WSW 35 48 19 26 1015.5 1015.9 3.8
24/08:00pm 5.6 -2.3 1.2 73 1.8 WSW 32 50 17 27 1015.3 1015.7 3.8
24/07:39pm 5.8 -1.7 1.0 71 1.9 WSW 30 50 16 27 1014.6 1015.1 3.8
24/07:30pm 5.3 -2.1 1.8 78 1.4 WSW 30 46 16 25 1014.6 1015.1 3.8
24/07:13pm 5.7 -2.7 1.8 76 1.6 WSW 35 54 19 29 1014.3 1014.7 3.8
24/07:00pm 6.1 -2.3 1.4 72 1.9 WSW 35 50 19 27 1013.9 1014.3 3.8
24/06:50pm 6.2 -2.2 1.5 72 1.9 WSW 35 57 19 31 1013.8 1014.2 3.8
24/06:30pm 5.8 -2.0 1.9 76 1.6 WSW 32 48 17 26 1013.3 1013.7 3.8
24/06:18pm 5.6 -1.3 2.4 80 1.3 W 28 50 15 27 1013.1 1013.5 3.8
24/06:00pm 6.5 -1.5 1.6 71 2.0 WSW 33 50 18 27 1012.3 1012.7 3.6
24/05:30pm 6.8 -2.7 1.7 70 2.1 W 41 59 22 32 1011.7 1012.1 3.6
24/05:00pm 7.0 -2.4 2.3 72 2.0 W 41 61 22 33 1010.9 1011.3 3.6
24/04:47pm 7.1 -1.6 2.0 70 2.1 W 37 67 20 36 1010.6 1010.9 3.6
24/04:38pm 6.7 0.0 3.5 80 1.4 W 28 46 15 25 1010.5 1010.8 3.6
24/04:30pm 6.7 -1.6 4.0 83 1.2 W 37 48 20 26 1010.4 1010.7 3.6
24/04:00pm 6.6 -0.2 5.1 90 0.7 W 30 41 16 22 1009.8 1010.2 3.6
24/03:40pm 6.7 -1.3 3.7 81 1.3 W 35 56 19 30 1009.5 1009.9 3.4
24/03:30pm 7.6 0.5 3.8 77 1.7 W 30 44 16 24 1009.3 1009.7 3.4
24/03:09pm 7.2 0.7 4.7 84 1.1 W 28 39 15 21 1009.2 1009.6 3.4
24/03:00pm 6.5 -0.4 4.7 88 0.8 W 30 43 16 23 1009.0 1009.3 3.4
24/02:50pm 5.8 -4.9 4.4 91 0.6 W 50 70 27 38 1009.2 1009.6 3.4
24/02:44pm 5.2 -5.8 3.2 87 0.9 W 50 69 27 37 1009.6 1010.0 3.0
24/02:43pm 5.4 -5.5 3.4 87 0.9 W 50 69 27 37 1009.5 1009.9 3.0
24/02:30pm 7.2 -1.2 3.6 78 1.6 WNW 37 61 20 33 1008.3 1008.6 2.2
24/02:29pm 7.3 -0.8 3.5 77 1.7 WNW 35 56 19 30 1008.3 1008.6 2.2
24/02:20pm 8.1 1.3 3.0 70 2.2 WNW 28 44 15 24 1007.9 1008.3 2.0
24/02:00pm 8.5 1.9 4.3 75 1.9 W 28 39 15 21 1007.9 1008.3 2.0
24/01:30pm 10.8 3.3 3.4 60 3.3 W 32 50 17 27 1007.9 1008.3 2.0
24/01:14pm 10.6 3.3 4.5 66 2.8 W 32 50 17 27 1008.0 1008.4 2.0
24/01:00pm 9.3 2.3 3.9 69 2.4 W 30 39 16 21 1008.2 1008.5 2.0
24/12:53pm 8.6 0.7 4.6 76 1.8 WSW 35 54 19 29 1008.4 1008.7 2.0
24/12:43pm 8.3 -0.6 3.0 69 2.3 W 39 65 21 35 1008.6 1008.9 2.0
24/12:39pm 9.7 1.0 2.3 60 3.2 W 37 65 20 35 1008.5 1008.8 2.0
24/12:30pm 10.0 0.7 3.1 62 3.1 WNW 41 54 22 29 1008.4 1008.7 2.0
24/12:00pm 10.3 2.2 3.3 62 3.1 W 35 54 19 29 1008.7 1009.0 2.0
24/11:35am 9.8 1.8 4.0 67 2.6 W 35 54 19 29 1009.0 1009.3 2.0
24/11:30am 10.0 2.8 5.0 71 2.3 W 32 44 17 24 1009.0 1009.3 2.0
24/11:00am 8.8 2.6 6.3 84 1.2 W 28 41 15 22 1009.2 1009.6 2.0
24/10:47am 8.6 2.6 6.9 89 0.8 W 28 37 15 20 1009.4 1009.8 2.0
24/10:30am 7.8 1.4 7.1 95 0.3 W 30 39 16 21 1009.4 1009.8 1.8
24/10:00am 8.3 3.6 7.9 97 0.2 W 22 32 12 17 1009.2 1009.6 1.2
24/09:30am 7.8 1.8 7.2 96 0.3 W 28 39 15 21 1009.0 1009.3 1.0
24/09:24am 7.5 0.4 6.6 94 0.4 W 33 52 18 28 1008.6 1008.9 1.0
24/09:15am 8.1 1.9 6.1 87 0.9 W 28 43 15 23 1008.8 1009.1 0.2
24/09:00am 8.9 3.8 7.8 93 0.5 WNW 24 32 13 17 1008.3 1008.6 10.4
24/08:30am 8.7 3.0 8.3 97 0.2 WNW 28 39 15 21 1007.9 1008.3 10.2
24/08:27am 8.5 2.4 8.1 97 0.2 WNW 30 46 16 25 1007.8 1008.2 9.8
24/08:25am 8.5 2.0 8.1 97 0.2 WNW 32 50 17 27 1007.8 1008.2 9.8
24/08:00am 9.5 4.7 9.0 97 0.3 NW 24 33 13 18 1007.5 1007.9 6.0
24/07:30am 9.8 5.6 8.4 91 0.7 NNW 20 32 11 17 1007.1 1007.4 5.6
24/07:00am 9.6 5.4 8.2 91 0.7 NNW 20 26 11 14 1007.2 1007.6 5.6
24/06:30am 9.6 5.9 8.0 90 0.8 NNW 17 24 9 13 1007.2 1007.6 5.6
24/06:15am 10.0 6.0 8.3 89 0.8 NW 19 26 10 14 1007.3 1007.7 5.6
24/06:00am 9.8 6.3 8.6 92 0.6 WNW 17 26 9 14 1007.3 1007.7 5.6
24/05:57am 9.7 5.7 8.3 91 0.7 WNW 19 26 10 14 1007.3 1007.7 5.6
24/05:30am 10.5 6.4 8.8 89 0.9 NW 20 28 11 15 1006.8 1007.1 5.2
24/05:00am 10.3 7.3 9.4 94 0.5 NW 15 24 8 13 1006.8 1007.1 5.2
24/04:30am 10.7 7.0 9.6 93 0.6 NNW 19 24 10 13 1006.7 1007.0 5.2
24/04:00am 10.7 7.3 9.3 91 0.7 NW 17 20 9 11 1006.8 1007.1 5.2
24/03:36am 11.0 7.2 9.1 88 1.0 NW 19 26 10 14 1007.1 1007.4 5.2
24/03:30am 11.1 7.1 9.2 88 1.0 NW 20 26 11 14 1007.1 1007.4 5.2
24/03:00am 11.4 7.7 9.3 87 1.1 NW 19 26 10 14 1007.1 1007.4 5.2
24/02:30am 11.3 7.1 9.6 89 0.9 NW 22 30 12 16 1007.3 1007.7 5.2
24/02:10am 11.5 6.6 9.8 89 0.9 NW 26 37 14 20 1007.4 1007.8 5.2
24/02:00am 11.5 7.0 10.2 92 0.7 NW 24 33 13 18 1007.4 1007.8 5.2
24/01:30am 11.4 7.2 11.1 98 0.2 NW 24 32 13 17 1007.5 1007.9 5.2
24/01:00am 11.1 7.6 10.8 98 0.2 NW 20 28 11 15 1007.4 1007.8 5.0
24/12:30am 11.1 7.8 10.8 98 0.2 NW 19 28 10 15 1007.7 1008.1 4.4
24/12:00am 11.3 7.5 11.0 98 0.2 NW 22 32 12 17 1008.3 1008.6 4.2
 
Date/Time
EST
Temp
°C
App
Temp
°C
Dew
Point
°C
Rel
Hum
%
Delta-T
°C
Wind Press
QNH
hPa
Press
MSL
hPa
Rain since
9am
mm
Dir  Spd
km/h
Gust
km/h
Spd
kts
Gust
kts
23/11:30pm 11.0 7.4 10.7 98 0.2 NW 20 26 11 14 1008.5 1008.8 4.0
23/11:00pm 11.0 7.6 10.7 98 0.2 NNW 19 26 10 14 1008.5 1008.8 4.0
23/10:30pm 11.1 8.1 10.8 98 0.2 NNW 17 26 9 14 1008.5 1008.8 3.6
23/10:00pm 11.2 7.3 10.9 98 0.2 NW 22 30 12 16 1008.7 1009.0 3.6
23/09:30pm 10.9 7.5 10.6 98 0.2 NW 19 26 10 14 1008.8 1009.1 3.6
23/09:00pm 10.4 8.0 10.2 99 0.1 NW 13 17 7 9 1008.6 1008.9 3.4
23/08:30pm 10.5 7.8 10.3 99 0.1 N 15 20 8 11 1008.4 1008.7 1.8
23/08:00pm 10.4 8.0 10.2 99 0.1 N 13 17 7 9 1008.9 1009.2 1.4
23/07:30pm 10.4 7.7 10.2 99 0.1 N 15 19 8 10 1008.9 1009.2 1.4
23/07:00pm 10.3 7.5 10.1 99 0.1 N 15 17 8 9 1009.1 1009.5 1.2
23/06:30pm 10.0 8.3 9.9 99 0.1 N 9 11 5 6 1009.2 1009.6 1.2
23/06:13pm 9.9 8.6 9.8 99 0.1 N 7 7 4 4 1009.2 1009.6 1.0
23/06:11pm 9.9 8.6 9.8 99 0.1 N 7 7 4 4 1009.2 1009.6 1.0
23/06:00pm 9.9 8.6 9.8 99 0.1 N 7 9 4 5 1009.2 1009.6 0.8
23/05:30pm 10.0 7.5 9.7 98 0.2 N 13 19 7 10 1009.4 1009.8 0.4
23/05:00pm 11.2 9.7 9.3 88 1.0 N 7 11 4 6 1009.2 1009.6 0.0
23/04:41pm 11.3 8.6 9.0 86 1.2 N 13 19 7 10 1009.1 1009.5 0.0
23/04:30pm 11.5 8.4 8.7 83 1.4 N 15 19 8 10 1009.1 1009.5 0.0
23/04:00pm 11.8 8.6 8.6 81 1.6 N 15 19 8 10 1009.4 1009.8 0.0
23/03:30pm 12.0 8.4 8.5 79 1.8 N 17 20 9 11 1009.6 1010.0 0.0
23/03:18pm 12.0 8.4 8.5 79 1.8 N 17 20 9 11 1009.7 1010.1 0.0
23/03:04pm 12.1 9.3 8.6 79 1.8 NNW 13 15 7 8 1009.8 1010.2 0.0
23/03:00pm 12.1 9.6 8.4 78 1.9 N 11 15 6 8 1009.8 1010.2 0.0
23/02:43pm 12.0 9.9 8.3 78 1.9 N 9 13 5 7 1010.1 1010.5 0.0
23/02:32pm 11.9 9.0 8.2 78 1.9 N 13 15 7 8 1010.4 1010.7 0.0
23/02:30pm 11.9 9.0 8.2 78 1.9 NNW 13 15 7 8 1010.4 1010.7 0.0
23/02:00pm 11.8 9.4 8.5 80 1.7 NNW 11 15 6 8 1010.8 1011.1 0.0
23/01:30pm 11.6 8.7 8.3 80 1.7 NNW 13 17 7 9 1011.4 1011.8 0.0
23/01:00pm 11.5 8.7 8.7 83 1.4 NNW 13 17 7 9 1011.9 1012.3 0.0
23/12:30pm 10.6 8.7 8.9 89 0.9 NNW 9 15 5 8 1012.8 1013.2 0.0
23/12:00pm 10.2 9.0 9.7 97 0.3 NW 6 9 3 5 1013.5 1013.9 0.0
23/11:30am 9.2 8.6 8.9 98 0.2 SSW 2 9 1 5 1014.2 1014.6 0.0
23/11:15am 8.6 8.3 8.5 99 0.0 CALM 0 0 0 0 1014.2 1014.6 0.0
23/11:00am 8.4 8.0 8.3 99 0.0 CALM 0 4 0 2 1014.5 1015.0 0.0
23/10:42am 7.8 7.3 7.7 99 0.0 CALM 0 6 0 3 1014.7 1015.2 0.0
23/10:30am 7.4 6.4 7.3 99 0.0 WSW 2 6 1 3 1015.1 1015.5 0.0
23/10:10am 6.8 6.0 6.7 99 0.0 CALM 0 0 0 0 1015.3 1015.7 0.0
23/10:00am 6.4 5.6 6.3 99 0.0 CALM 0 0 0 0 1015.2 1015.6 0.0
23/09:30am 5.8 4.8 5.7 99 0.0 CALM 0 4 0 2 1015.7 1016.1 0.0
23/09:00am 5.2 4.1 5.1 99 0.0 CALM 0 0 0 0 1015.2 1015.6 0.0
23/08:30am 4.9 3.7 4.8 99 0.0 CALM 0 0 0 0 1015.2 1015.6 0.0
23/08:00am 4.5 3.3 4.4 99 0.0 CALM 0 0 0 0 1014.6 1015.1 0.0
23/07:30am 3.9 1.4 3.8 99 0.0 ENE 6 7 3 4 1014.4 1014.9 0.0

Other Formats:

Comma delimited format used in spreadsheet applications
http://www.bom.gov.au/fwo/IDN60801/IDN60801.94727.axf

JavaScript Object Notation format (JSON) in row-major order
http://www.bom.gov.au/fwo/IDN60801/IDN60801.94727.json